Am 6. und 7. September findet auf unserem Flugplatz ein Hock statt, zu dem wir Sie gerne einladen.

Wir feiern an diesem Tag auch die Aufwertung unseres Flugplatzes zum Sonderlandeplatz mit der Kennung EDSO.

Neben Essen und Trinken, haben Sie die Gelegenheit sich über unseren Sport näher zu informieren.

 

 

 

 

WebCam

  
Kamera Halle
Kamera Vorfeld
Wetter EDDS

METAR

EDDS 251120Z 30018KT 9999 FEW020CB SCT040 07/M02 Q1021 NOSIG =
EDDS 251100Z 2512/2612 29015G30KT 9999 SCT020 BKN035 PROB40 TEMPO 2512/2520 SHRA SCT025CB PROB30 TEMPO 2512/2517 32020G35KT 3000 TSGS BKN013 BKN020CB BECMG 2518/2521 30007KT


TAF

EDDS 251100Z 2512/2612 29015G30KT 9999 SCT020 BKN035 PROB40 TEMPO 2512/2520 SHRA SCT025CB PROB30 TEMPO 2512/2517 32020G35KT 3000 TSGS BKN013 BKN020CB BECMG 2518/2521 30007KT =


SR/SS

05:14 / 17:40 UTC
(EDSO 25-03-2019)